sensor_id;sensor_type;location;lat;lon;timestamp;P1;durP1;ratioP1;P2;durP2;ratioP2
78430;SDS011;67727;50.236;22.452;2023-05-29T00:00:58;18.60;;;7.20;;
78430;SDS011;67727;50.236;22.452;2023-05-29T00:03:26;15.30;;;6.40;;
78430;SDS011;67727;50.236;22.452;2023-05-29T00:05:53;11.70;;;6.10;;
78430;SDS011;67727;50.236;22.452;2023-05-29T00:08:20;15.80;;;6.30;;
78430;SDS011;67727;50.236;22.452;2023-05-29T00:10:46;15.30;;;7.50;;
78430;SDS011;67727;50.236;22.452;2023-05-29T00:13:13;15.00;;;7.90;;
78430;SDS011;67727;50.236;22.452;2023-05-29T00:15:40;17.40;;;7.70;;
78430;SDS011;67727;50.236;22.452;2023-05-29T00:18:07;14.80;;;6.70;;
78430;SDS011;67727;50.236;22.452;2023-05-29T00:20:34;18.20;;;8.00;;
78430;SDS011;67727;50.236;22.452;2023-05-29T00:23:01;13.40;;;6.90;;
78430;SDS011;67727;50.236;22.452;2023-05-29T00:25:32;16.30;;;7.70;;
78430;SDS011;67727;50.236;22.452;2023-05-29T00:27:59;14.20;;;6.90;;
78430;SDS011;67727;50.236;22.452;2023-05-29T00:30:25;10.30;;;6.20;;
78430;SDS011;67727;50.236;22.452;2023-05-29T00:32:52;12.90;;;5.90;;
78430;SDS011;67727;50.236;22.452;2023-05-29T00:35:20;12.20;;;7.10;;
78430;SDS011;67727;50.236;22.452;2023-05-29T00:37:47;15.20;;;6.20;;
78430;SDS011;67727;50.236;22.452;2023-05-29T00:40:14;14.30;;;6.60;;
78430;SDS011;67727;50.236;22.452;2023-05-29T00:42:40;13.30;;;7.00;;
78430;SDS011;67727;50.236;22.452;2023-05-29T00:45:07;13.40;;;6.70;;
78430;SDS011;67727;50.236;22.452;2023-05-29T00:47:35;19.60;;;7.30;;
78430;SDS011;67727;50.236;22.452;2023-05-29T00:50:02;13.00;;;7.10;;
78430;SDS011;67727;50.236;22.452;2023-05-29T00:52:30;9.00;;;6.70;;
78430;SDS011;67727;50.236;22.452;2023-05-29T00:54:57;13.10;;;6.60;;
78430;SDS011;67727;50.236;22.452;2023-05-29T00:57:24;11.30;;;6.30;;
78430;SDS011;67727;50.236;22.452;2023-05-29T00:59:51;13.00;;;7.00;;
78430;SDS011;67727;50.236;22.452;2023-05-29T01:02:18;10.00;;;6.40;;
78430;SDS011;67727;50.236;22.452;2023-05-29T01:04:46;11.00;;;6.60;;
78430;SDS011;67727;50.236;22.452;2023-05-29T01:07:14;11.70;;;7.10;;
78430;SDS011;67727;50.236;22.452;2023-05-29T01:09:41;13.60;;;6.80;;
78430;SDS011;67727;50.236;22.452;2023-05-29T01:23:37;11.10;;;6.20;;
78430;SDS011;67727;50.236;22.452;2023-05-29T01:29:03;11.70;;;6.70;;
78430;SDS011;67727;50.236;22.452;2023-05-29T01:31:33;12.00;;;6.70;;
78430;SDS011;67727;50.236;22.452;2023-05-29T01:34:02;12.70;;;6.30;;
78430;SDS011;67727;50.236;22.452;2023-05-29T01:36:29;12.40;;;6.80;;
78430;SDS011;67727;50.236;22.452;2023-05-29T01:38:57;12.20;;;6.70;;
78430;SDS011;67727;50.236;22.452;2023-05-29T01:41:24;12.20;;;7.00;;
78430;SDS011;67727;50.236;22.452;2023-05-29T01:43:52;11.50;;;6.20;;
78430;SDS011;67727;50.236;22.452;2023-05-29T01:46:20;10.40;;;6.20;;
78430;SDS011;67727;50.236;22.452;2023-05-29T01:48:48;12.10;;;6.80;;
78430;SDS011;67727;50.236;22.452;2023-05-29T01:51:15;12.40;;;7.30;;
78430;SDS011;67727;50.236;22.452;2023-05-29T01:53:42;10.70;;;6.00;;
78430;SDS011;67727;50.236;22.452;2023-05-29T01:56:10;12.50;;;6.70;;
78430;SDS011;67727;50.236;22.452;2023-05-29T01:58:38;10.20;;;6.40;;
78430;SDS011;67727;50.236;22.452;2023-05-29T02:01:06;11.70;;;6.50;;
78430;SDS011;67727;50.236;22.452;2023-05-29T02:06:01;12.80;;;6.60;;
78430;SDS011;67727;50.236;22.452;2023-05-29T02:08:28;12.80;;;6.50;;
78430;SDS011;67727;50.236;22.452;2023-05-29T02:10:55;18.10;;;7.40;;
78430;SDS011;67727;50.236;22.452;2023-05-29T02:13:22;19.20;;;7.40;;
78430;SDS011;67727;50.236;22.452;2023-05-29T02:15:49;14.80;;;7.80;;
78430;SDS011;67727;50.236;22.452;2023-05-29T02:18:15;12.30;;;6.60;;
78430;SDS011;67727;50.236;22.452;2023-05-29T02:20:45;17.60;;;7.60;;
78430;SDS011;67727;50.236;22.452;2023-05-29T02:23:12;12.70;;;7.00;;
78430;SDS011;67727;50.236;22.452;2023-05-29T02:25:39;17.20;;;8.00;;
78430;SDS011;67727;50.236;22.452;2023-05-29T02:28:06;17.50;;;7.60;;
78430;SDS011;67727;50.236;22.452;2023-05-29T02:30:34;15.90;;;7.10;;
78430;SDS011;67727;50.236;22.452;2023-05-29T02:33:01;15.10;;;7.90;;
78430;SDS011;67727;50.236;22.452;2023-05-29T02:35:28;12.90;;;7.70;;
78430;SDS011;67727;50.236;22.452;2023-05-29T02:37:55;12.40;;;7.40;;
78430;SDS011;67727;50.236;22.452;2023-05-29T02:40:22;15.20;;;8.70;;
78430;SDS011;67727;50.236;22.452;2023-05-29T02:42:49;13.30;;;7.50;;
78430;SDS011;67727;50.236;22.452;2023-05-29T02:47:43;12.30;;;6.50;;
78430;SDS011;67727;50.236;22.452;2023-05-29T02:50:10;10.30;;;6.00;;
78430;SDS011;67727;50.236;22.452;2023-05-29T02:52:37;14.00;;;6.00;;
78430;SDS011;67727;50.236;22.452;2023-05-29T02:55:04;10.90;;;4.80;;
78430;SDS011;67727;50.236;22.452;2023-05-29T02:57:32;8.60;;;5.00;;
78430;SDS011;67727;50.236;22.452;2023-05-29T02:59:59;12.30;;;5.70;;
78430;SDS011;67727;50.236;22.452;2023-05-29T03:02:27;11.30;;;6.80;;
78430;SDS011;67727;50.236;22.452;2023-05-29T03:04:54;10.60;;;5.90;;
78430;SDS011;67727;50.236;22.452;2023-05-29T03:07:20;12.20;;;5.50;;
78430;SDS011;67727;50.236;22.452;2023-05-29T03:09:47;10.10;;;5.20;;
78430;SDS011;67727;50.236;22.452;2023-05-29T03:12:14;12.90;;;5.50;;
78430;SDS011;67727;50.236;22.452;2023-05-29T03:14:41;14.00;;;6.20;;
78430;SDS011;67727;50.236;22.452;2023-05-29T03:17:08;11.00;;;5.60;;
78430;SDS011;67727;50.236;22.452;2023-05-29T03:19:34;9.60;;;6.10;;
78430;SDS011;67727;50.236;22.452;2023-05-29T03:22:01;10.60;;;6.00;;
78430;SDS011;67727;50.236;22.452;2023-05-29T03:24:28;10.70;;;6.40;;
78430;SDS011;67727;50.236;22.452;2023-05-29T03:26:55;7.60;;;5.20;;
78430;SDS011;67727;50.236;22.452;2023-05-29T03:29:22;9.60;;;6.00;;
78430;SDS011;67727;50.236;22.452;2023-05-29T03:31:49;10.50;;;6.00;;
78430;SDS011;67727;50.236;22.452;2023-05-29T03:34:16;10.00;;;5.20;;
78430;SDS011;67727;50.236;22.452;2023-05-29T03:36:43;8.30;;;5.40;;
78430;SDS011;67727;50.236;22.452;2023-05-29T03:39:10;9.50;;;5.40;;
78430;SDS011;67727;50.236;22.452;2023-05-29T03:41:37;10.50;;;5.70;;
78430;SDS011;67727;50.236;22.452;2023-05-29T03:44:04;12.10;;;5.90;;
78430;SDS011;67727;50.236;22.452;2023-05-29T03:46:31;7.80;;;4.80;;
78430;SDS011;67727;50.236;22.452;2023-05-29T03:48:58;11.40;;;5.10;;
78430;SDS011;67727;50.236;22.452;2023-05-29T03:51:25;10.00;;;6.00;;
78430;SDS011;67727;50.236;22.452;2023-05-29T03:53:52;10.10;;;6.00;;
78430;SDS011;67727;50.236;22.452;2023-05-29T03:56:18;10.30;;;5.70;;
78430;SDS011;67727;50.236;22.452;2023-05-29T03:58:45;9.40;;;5.20;;
78430;SDS011;67727;50.236;22.452;2023-05-29T04:01:12;8.30;;;4.70;;
78430;SDS011;67727;50.236;22.452;2023-05-29T04:03:39;6.80;;;4.70;;
78430;SDS011;67727;50.236;22.452;2023-05-29T04:06:06;4.90;;;3.50;;
78430;SDS011;67727;50.236;22.452;2023-05-29T04:08:33;9.40;;;4.20;;
78430;SDS011;67727;50.236;22.452;2023-05-29T04:11:00;6.80;;;4.30;;
78430;SDS011;67727;50.236;22.452;2023-05-29T04:13:27;5.50;;;3.90;;
78430;SDS011;67727;50.236;22.452;2023-05-29T04:15:54;5.10;;;3.90;;
78430;SDS011;67727;50.236;22.452;2023-05-29T04:18:21;8.20;;;4.60;;
78430;SDS011;67727;50.236;22.452;2023-05-29T04:20:48;6.50;;;3.90;;
78430;SDS011;67727;50.236;22.452;2023-05-29T04:23:15;8.20;;;3.80;;
78430;SDS011;67727;50.236;22.452;2023-05-29T04:25:42;6.10;;;3.80;;
78430;SDS011;67727;50.236;22.452;2023-05-29T04:28:10;8.80;;;3.80;;
78430;SDS011;67727;50.236;22.452;2023-05-29T04:30:38;7.90;;;3.60;;
78430;SDS011;67727;50.236;22.452;2023-05-29T04:33:06;6.30;;;4.30;;
78430;SDS011;67727;50.236;22.452;2023-05-29T04:35:32;6.40;;;4.60;;
78430;SDS011;67727;50.236;22.452;2023-05-29T04:37:59;6.70;;;3.60;;
78430;SDS011;67727;50.236;22.452;2023-05-29T04:40:26;6.50;;;4.40;;
78430;SDS011;67727;50.236;22.452;2023-05-29T04:42:53;10.80;;;4.40;;
78430;SDS011;67727;50.236;22.452;2023-05-29T04:45:20;5.90;;;4.10;;
78430;SDS011;67727;50.236;22.452;2023-05-29T04:47:47;7.90;;;4.00;;
78430;SDS011;67727;50.236;22.452;2023-05-29T04:50:14;6.30;;;3.70;;
78430;SDS011;67727;50.236;22.452;2023-05-29T04:52:43;9.80;;;4.40;;
78430;SDS011;67727;50.236;22.452;2023-05-29T04:55:10;6.10;;;3.50;;
78430;SDS011;67727;50.236;22.452;2023-05-29T04:57:37;6.80;;;4.00;;
78430;SDS011;67727;50.236;22.452;2023-05-29T05:00:04;6.60;;;3.50;;
78430;SDS011;67727;50.236;22.452;2023-05-29T05:02:33;7.50;;;4.00;;
78430;SDS011;67727;50.236;22.452;2023-05-29T05:05:00;9.00;;;3.90;;
78430;SDS011;67727;50.236;22.452;2023-05-29T05:07:27;8.80;;;3.80;;
78430;SDS011;67727;50.236;22.452;2023-05-29T05:09:53;5.80;;;3.70;;
78430;SDS011;67727;50.236;22.452;2023-05-29T05:12:20;6.00;;;3.90;;
78430;SDS011;67727;50.236;22.452;2023-05-29T05:14:47;6.70;;;4.00;;
78430;SDS011;67727;50.236;22.452;2023-05-29T05:17:14;7.70;;;4.30;;
78430;SDS011;67727;50.236;22.452;2023-05-29T05:19:41;9.80;;;4.60;;
78430;SDS011;67727;50.236;22.452;2023-05-29T05:22:08;10.50;;;4.90;;
78430;SDS011;67727;50.236;22.452;2023-05-29T05:24:34;11.40;;;5.00;;
78430;SDS011;67727;50.236;22.452;2023-05-29T05:27:01;8.10;;;4.30;;
78430;SDS011;67727;50.236;22.452;2023-05-29T05:29:30;6.10;;;3.80;;
78430;SDS011;67727;50.236;22.452;2023-05-29T05:31:57;9.70;;;3.70;;
78430;SDS011;67727;50.236;22.452;2023-05-29T05:34:24;5.60;;;3.70;;
78430;SDS011;67727;50.236;22.452;2023-05-29T05:36:51;7.10;;;4.80;;
78430;SDS011;67727;50.236;22.452;2023-05-29T05:39:18;10.80;;;3.40;;
78430;SDS011;67727;50.236;22.452;2023-05-29T05:41:45;8.90;;;3.40;;
78430;SDS011;67727;50.236;22.452;2023-05-29T05:44:12;6.20;;;3.40;;
78430;SDS011;67727;50.236;22.452;2023-05-29T05:46:39;5.90;;;3.40;;
78430;SDS011;67727;50.236;22.452;2023-05-29T05:49:06;8.80;;;3.40;;
78430;SDS011;67727;50.236;22.452;2023-05-29T05:51:32;5.50;;;3.60;;
78430;SDS011;67727;50.236;22.452;2023-05-29T05:53:59;4.70;;;3.40;;
78430;SDS011;67727;50.236;22.452;2023-05-29T05:56:26;7.10;;;3.90;;
78430;SDS011;67727;50.236;22.452;2023-05-29T05:58:53;5.00;;;3.30;;
78430;SDS011;67727;50.236;22.452;2023-05-29T06:01:20;5.60;;;3.80;;
78430;SDS011;67727;50.236;22.452;2023-05-29T06:03:46;6.40;;;3.50;;
78430;SDS011;67727;50.236;22.452;2023-05-29T06:06:13;6.90;;;3.30;;
78430;SDS011;67727;50.236;22.452;2023-05-29T06:08:40;10.30;;;3.50;;
78430;SDS011;67727;50.236;22.452;2023-05-29T06:11:07;6.20;;;3.50;;
78430;SDS011;67727;50.236;22.452;2023-05-29T06:13:34;7.50;;;3.10;;
78430;SDS011;67727;50.236;22.452;2023-05-29T06:16:01;7.30;;;3.40;;
78430;SDS011;67727;50.236;22.452;2023-05-29T06:18:28;5.30;;;3.50;;
78430;SDS011;67727;50.236;22.452;2023-05-29T06:20:55;7.30;;;3.40;;
78430;SDS011;67727;50.236;22.452;2023-05-29T06:23:21;7.60;;;3.40;;
78430;SDS011;67727;50.236;22.452;2023-05-29T06:25:48;7.90;;;3.50;;
78430;SDS011;67727;50.236;22.452;2023-05-29T06:28:15;4.60;;;3.20;;
78430;SDS011;67727;50.236;22.452;2023-05-29T06:30:42;5.00;;;3.20;;
78430;SDS011;67727;50.236;22.452;2023-05-29T06:33:09;10.30;;;3.40;;
78430;SDS011;67727;50.236;22.452;2023-05-29T06:38:03;6.90;;;3.00;;
78430;SDS011;67727;50.236;22.452;2023-05-29T06:40:29;5.20;;;2.90;;
78430;SDS011;67727;50.236;22.452;2023-05-29T06:42:56;6.20;;;3.20;;
78430;SDS011;67727;50.236;22.452;2023-05-29T06:45:23;6.10;;;3.50;;
78430;SDS011;67727;50.236;22.452;2023-05-29T06:47:50;9.10;;;3.10;;
78430;SDS011;67727;50.236;22.452;2023-05-29T06:50:17;5.70;;;3.30;;
78430;SDS011;67727;50.236;22.452;2023-05-29T06:52:43;7.70;;;3.50;;
78430;SDS011;67727;50.236;22.452;2023-05-29T06:55:10;8.10;;;3.30;;
78430;SDS011;67727;50.236;22.452;2023-05-29T06:57:37;4.90;;;3.30;;
78430;SDS011;67727;50.236;22.452;2023-05-29T07:00:04;7.10;;;3.50;;
78430;SDS011;67727;50.236;22.452;2023-05-29T07:02:32;7.70;;;3.40;;
78430;SDS011;67727;50.236;22.452;2023-05-29T07:04:59;7.60;;;3.20;;
78430;SDS011;67727;50.236;22.452;2023-05-29T07:07:26;5.80;;;3.30;;
78430;SDS011;67727;50.236;22.452;2023-05-29T07:09:53;9.80;;;4.30;;
78430;SDS011;67727;50.236;22.452;2023-05-29T07:12:21;8.60;;;3.70;;
78430;SDS011;67727;50.236;22.452;2023-05-29T07:14:49;6.30;;;3.80;;
78430;SDS011;67727;50.236;22.452;2023-05-29T07:17:16;11.10;;;3.50;;
78430;SDS011;67727;50.236;22.452;2023-05-29T07:19:42;6.50;;;3.10;;
78430;SDS011;67727;50.236;22.452;2023-05-29T07:22:09;8.40;;;3.90;;
78430;SDS011;67727;50.236;22.452;2023-05-29T07:24:36;13.40;;;3.70;;
78430;SDS011;67727;50.236;22.452;2023-05-29T07:27:03;6.10;;;3.90;;
78430;SDS011;67727;50.236;22.452;2023-05-29T07:29:31;6.20;;;3.60;;
78430;SDS011;67727;50.236;22.452;2023-05-29T07:31:58;7.20;;;3.80;;
78430;SDS011;67727;50.236;22.452;2023-05-29T07:34:25;8.80;;;4.50;;
78430;SDS011;67727;50.236;22.452;2023-05-29T07:36:56;7.20;;;3.80;;
78430;SDS011;67727;50.236;22.452;2023-05-29T07:39:24;8.60;;;3.90;;
78430;SDS011;67727;50.236;22.452;2023-05-29T07:41:51;7.70;;;3.60;;
78430;SDS011;67727;50.236;22.452;2023-05-29T07:44:18;8.70;;;3.60;;
78430;SDS011;67727;50.236;22.452;2023-05-29T07:49:12;8.10;;;3.70;;
78430;SDS011;67727;50.236;22.452;2023-05-29T07:54:06;7.80;;;3.70;;
78430;SDS011;67727;50.236;22.452;2023-05-29T07:56:33;5.30;;;3.50;;
78430;SDS011;67727;50.236;22.452;2023-05-29T07:59:00;10.20;;;3.40;;
78430;SDS011;67727;50.236;22.452;2023-05-29T08:01:27;13.00;;;3.50;;
78430;SDS011;67727;50.236;22.452;2023-05-29T08:03:54;8.30;;;3.90;;
78430;SDS011;67727;50.236;22.452;2023-05-29T08:06:21;11.40;;;3.90;;
78430;SDS011;67727;50.236;22.452;2023-05-29T08:08:48;6.10;;;3.70;;
78430;SDS011;67727;50.236;22.452;2023-05-29T08:11:15;5.20;;;3.20;;
78430;SDS011;67727;50.236;22.452;2023-05-29T08:13:42;11.40;;;3.80;;
78430;SDS011;67727;50.236;22.452;2023-05-29T08:16:08;10.80;;;3.50;;
78430;SDS011;67727;50.236;22.452;2023-05-29T08:18:35;6.80;;;3.60;;
78430;SDS011;67727;50.236;22.452;2023-05-29T08:21:03;4.70;;;2.90;;
78430;SDS011;67727;50.236;22.452;2023-05-29T08:23:29;11.60;;;3.40;;
78430;SDS011;67727;50.236;22.452;2023-05-29T08:25:58;14.80;;;4.20;;
78430;SDS011;67727;50.236;22.452;2023-05-29T08:28:25;7.70;;;3.30;;
78430;SDS011;67727;50.236;22.452;2023-05-29T08:30:53;9.20;;;3.50;;
78430;SDS011;67727;50.236;22.452;2023-05-29T08:33:19;6.80;;;2.90;;
78430;SDS011;67727;50.236;22.452;2023-05-29T08:35:46;9.40;;;3.40;;
78430;SDS011;67727;50.236;22.452;2023-05-29T08:38:13;8.70;;;3.00;;
78430;SDS011;67727;50.236;22.452;2023-05-29T08:40:40;10.00;;;3.40;;
78430;SDS011;67727;50.236;22.452;2023-05-29T08:43:09;7.30;;;3.00;;
78430;SDS011;67727;50.236;22.452;2023-05-29T08:45:40;9.00;;;3.10;;
78430;SDS011;67727;50.236;22.452;2023-05-29T08:48:10;14.40;;;3.30;;
78430;SDS011;67727;50.236;22.452;2023-05-29T08:50:43;9.30;;;3.30;;
78430;SDS011;67727;50.236;22.452;2023-05-29T08:53:14;12.00;;;3.40;;
78430;SDS011;67727;50.236;22.452;2023-05-29T08:55:41;5.20;;;3.00;;
78430;SDS011;67727;50.236;22.452;2023-05-29T08:58:09;9.60;;;3.20;;
78430;SDS011;67727;50.236;22.452;2023-05-29T09:00:37;12.00;;;2.90;;
78430;SDS011;67727;50.236;22.452;2023-05-29T09:03:05;8.60;;;3.00;;
78430;SDS011;67727;50.236;22.452;2023-05-29T09:05:31;11.50;;;3.50;;
78430;SDS011;67727;50.236;22.452;2023-05-29T09:07:59;9.20;;;3.00;;
78430;SDS011;67727;50.236;22.452;2023-05-29T09:10:26;7.00;;;3.00;;
78430;SDS011;67727;50.236;22.452;2023-05-29T09:12:53;10.20;;;3.20;;
78430;SDS011;67727;50.236;22.452;2023-05-29T09:15:21;8.30;;;3.20;;
78430;SDS011;67727;50.236;22.452;2023-05-29T09:17:52;9.20;;;3.40;;
78430;SDS011;67727;50.236;22.452;2023-05-29T09:20:24;7.70;;;3.10;;
78430;SDS011;67727;50.236;22.452;2023-05-29T09:23:13;5.70;;;3.20;;
78430;SDS011;67727;50.236;22.452;2023-05-29T09:25:42;9.30;;;3.20;;
78430;SDS011;67727;50.236;22.452;2023-05-29T09:28:09;9.90;;;4.20;;
78430;SDS011;67727;50.236;22.452;2023-05-29T09:30:40;12.30;;;3.90;;
78430;SDS011;67727;50.236;22.452;2023-05-29T09:33:11;7.90;;;3.10;;
78430;SDS011;67727;50.236;22.452;2023-05-29T09:38:08;6.00;;;3.00;;
78430;SDS011;67727;50.236;22.452;2023-05-29T09:40:37;12.10;;;3.30;;
78430;SDS011;67727;50.236;22.452;2023-05-29T09:43:14;6.50;;;2.90;;
78430;SDS011;67727;50.236;22.452;2023-05-29T09:45:49;7.00;;;2.90;;
78430;SDS011;67727;50.236;22.452;2023-05-29T09:48:17;5.20;;;2.90;;
78430;SDS011;67727;50.236;22.452;2023-05-29T09:50:45;5.80;;;3.10;;
78430;SDS011;67727;50.236;22.452;2023-05-29T09:53:18;6.40;;;3.30;;
78430;SDS011;67727;50.236;22.452;2023-05-29T09:55:53;6.90;;;3.00;;
78430;SDS011;67727;50.236;22.452;2023-05-29T09:58:22;6.90;;;3.50;;
78430;SDS011;67727;50.236;22.452;2023-05-29T10:00:50;7.60;;;3.40;;
78430;SDS011;67727;50.236;22.452;2023-05-29T10:03:18;9.60;;;3.40;;
78430;SDS011;67727;50.236;22.452;2023-05-29T10:05:51;5.10;;;2.80;;
78430;SDS011;67727;50.236;22.452;2023-05-29T10:08:23;6.30;;;3.10;;
78430;SDS011;67727;50.236;22.452;2023-05-29T10:10:54;8.50;;;3.60;;
78430;SDS011;67727;50.236;22.452;2023-05-29T10:13:22;8.90;;;3.30;;
78430;SDS011;67727;50.236;22.452;2023-05-29T10:15:54;7.70;;;3.40;;
78430;SDS011;67727;50.236;22.452;2023-05-29T10:18:38;9.70;;;3.60;;
78430;SDS011;67727;50.236;22.452;2023-05-29T10:21:08;9.00;;;3.20;;
78430;SDS011;67727;50.236;22.452;2023-05-29T10:23:38;9.40;;;3.40;;
78430;SDS011;67727;50.236;22.452;2023-05-29T10:26:14;11.50;;;3.90;;
78430;SDS011;67727;50.236;22.452;2023-05-29T10:28:46;7.20;;;3.00;;
78430;SDS011;67727;50.236;22.452;2023-05-29T10:31:26;8.70;;;3.80;;
78430;SDS011;67727;50.236;22.452;2023-05-29T10:40:30;8.20;;;3.60;;
78430;SDS011;67727;50.236;22.452;2023-05-29T10:42:57;7.10;;;3.80;;
78430;SDS011;67727;50.236;22.452;2023-05-29T10:50:42;10.90;;;3.90;;
78430;SDS011;67727;50.236;22.452;2023-05-29T10:53:10;7.70;;;3.20;;
78430;SDS011;67727;50.236;22.452;2023-05-29T10:55:41;7.70;;;3.20;;
78430;SDS011;67727;50.236;22.452;2023-05-29T10:58:08;7.10;;;3.30;;
78430;SDS011;67727;50.236;22.452;2023-05-29T11:00:42;8.90;;;3.50;;
78430;SDS011;67727;50.236;22.452;2023-05-29T11:03:09;9.40;;;4.00;;
78430;SDS011;67727;50.236;22.452;2023-05-29T11:08:29;5.60;;;3.30;;
78430;SDS011;67727;50.236;22.452;2023-05-29T11:11:07;5.70;;;3.10;;
78430;SDS011;67727;50.236;22.452;2023-05-29T11:13:38;7.90;;;4.00;;
78430;SDS011;67727;50.236;22.452;2023-05-29T11:18:47;8.30;;;3.60;;
78430;SDS011;67727;50.236;22.452;2023-05-29T11:24:00;10.00;;;4.20;;
78430;SDS011;67727;50.236;22.452;2023-05-29T11:26:32;13.50;;;3.70;;
78430;SDS011;67727;50.236;22.452;2023-05-29T11:29:03;7.80;;;3.30;;
78430;SDS011;67727;50.236;22.452;2023-05-29T11:31:32;7.90;;;4.20;;
78430;SDS011;67727;50.236;22.452;2023-05-29T11:34:01;10.70;;;3.40;;
78430;SDS011;67727;50.236;22.452;2023-05-29T11:36:32;8.00;;;3.90;;
78430;SDS011;67727;50.236;22.452;2023-05-29T11:39:00;9.20;;;3.70;;
78430;SDS011;67727;50.236;22.452;2023-05-29T11:41:27;7.00;;;3.50;;
78430;SDS011;67727;50.236;22.452;2023-05-29T11:44:00;9.70;;;4.00;;
78430;SDS011;67727;50.236;22.452;2023-05-29T11:46:28;7.80;;;4.20;;
78430;SDS011;67727;50.236;22.452;2023-05-29T11:48:59;7.20;;;4.40;;
78430;SDS011;67727;50.236;22.452;2023-05-29T11:51:27;6.90;;;3.70;;
78430;SDS011;67727;50.236;22.452;2023-05-29T11:53:54;10.80;;;4.00;;
78430;SDS011;67727;50.236;22.452;2023-05-29T11:56:27;9.30;;;4.20;;
78430;SDS011;67727;50.236;22.452;2023-05-29T11:58:56;5.60;;;3.70;;
78430;SDS011;67727;50.236;22.452;2023-05-29T12:01:26;7.70;;;3.80;;
78430;SDS011;67727;50.236;22.452;2023-05-29T12:03:54;5.60;;;3.80;;
78430;SDS011;67727;50.236;22.452;2023-05-29T12:08:58;10.00;;;4.20;;
78430;SDS011;67727;50.236;22.452;2023-05-29T12:13:58;8.50;;;3.80;;
78430;SDS011;67727;50.236;22.452;2023-05-29T12:16:30;9.70;;;4.50;;
78430;SDS011;67727;50.236;22.452;2023-05-29T12:18:59;7.70;;;4.00;;
78430;SDS011;67727;50.236;22.452;2023-05-29T12:21:26;4.70;;;3.50;;
78430;SDS011;67727;50.236;22.452;2023-05-29T12:23:54;11.00;;;5.20;;
78430;SDS011;67727;50.236;22.452;2023-05-29T12:26:24;6.80;;;3.60;;
78430;SDS011;67727;50.236;22.452;2023-05-29T12:28:52;6.70;;;3.80;;
78430;SDS011;67727;50.236;22.452;2023-05-29T12:34:08;8.90;;;3.80;;
78430;SDS011;67727;50.236;22.452;2023-05-29T12:36:36;10.80;;;4.30;;
78430;SDS011;67727;50.236;22.452;2023-05-29T12:39:07;10.70;;;4.10;;
78430;SDS011;67727;50.236;22.452;2023-05-29T12:41:37;7.40;;;3.90;;
78430;SDS011;67727;50.236;22.452;2023-05-29T12:44:06;6.00;;;3.50;;
78430;SDS011;67727;50.236;22.452;2023-05-29T12:46:39;8.30;;;4.10;;
78430;SDS011;67727;50.236;22.452;2023-05-29T12:51:42;8.70;;;4.30;;
78430;SDS011;67727;50.236;22.452;2023-05-29T12:54:11;8.70;;;4.20;;
78430;SDS011;67727;50.236;22.452;2023-05-29T12:56:42;9.10;;;4.20;;
78430;SDS011;67727;50.236;22.452;2023-05-29T12:59:09;7.00;;;3.90;;
78430;SDS011;67727;50.236;22.452;2023-05-29T13:01:37;9.60;;;4.60;;
78430;SDS011;67727;50.236;22.452;2023-05-29T13:04:05;6.90;;;3.60;;
78430;SDS011;67727;50.236;22.452;2023-05-29T13:06:36;6.10;;;3.90;;
78430;SDS011;67727;50.236;22.452;2023-05-29T13:09:04;5.40;;;3.70;;
78430;SDS011;67727;50.236;22.452;2023-05-29T13:11:33;9.40;;;4.60;;
78430;SDS011;67727;50.236;22.452;2023-05-29T13:13:59;7.20;;;4.20;;
78430;SDS011;67727;50.236;22.452;2023-05-29T13:18:53;9.00;;;3.70;;
78430;SDS011;67727;50.236;22.452;2023-05-29T13:23:46;7.40;;;4.00;;
78430;SDS011;67727;50.236;22.452;2023-05-29T13:28:40;8.20;;;4.40;;
78430;SDS011;67727;50.236;22.452;2023-05-29T13:33:33;13.90;;;4.30;;
78430;SDS011;67727;50.236;22.452;2023-05-29T13:38:27;8.30;;;4.30;;
78430;SDS011;67727;50.236;22.452;2023-05-29T13:40:54;7.90;;;4.10;;
78430;SDS011;67727;50.236;22.452;2023-05-29T13:43:20;9.50;;;4.60;;
78430;SDS011;67727;50.236;22.452;2023-05-29T13:45:48;6.80;;;3.70;;
78430;SDS011;67727;50.236;22.452;2023-05-29T13:48:14;11.60;;;4.50;;
78430;SDS011;67727;50.236;22.452;2023-05-29T13:50:41;5.90;;;4.00;;
78430;SDS011;67727;50.236;22.452;2023-05-29T13:55:35;7.70;;;4.00;;
78430;SDS011;67727;50.236;22.452;2023-05-29T13:58:02;5.90;;;4.00;;
78430;SDS011;67727;50.236;22.452;2023-05-29T14:02:55;8.30;;;4.10;;
78430;SDS011;67727;50.236;22.452;2023-05-29T14:07:49;8.20;;;4.80;;
78430;SDS011;67727;50.236;22.452;2023-05-29T14:10:15;8.40;;;4.40;;
78430;SDS011;67727;50.236;22.452;2023-05-29T14:12:42;8.40;;;4.20;;
78430;SDS011;67727;50.236;22.452;2023-05-29T14:17:36;9.10;;;3.80;;
78430;SDS011;67727;50.236;22.452;2023-05-29T14:22:34;7.50;;;4.00;;
78430;SDS011;67727;50.236;22.452;2023-05-29T14:25:03;10.90;;;4.00;;
78430;SDS011;67727;50.236;22.452;2023-05-29T14:27:30;5.70;;;4.00;;
78430;SDS011;67727;50.236;22.452;2023-05-29T14:32:24;7.00;;;3.90;;
78430;SDS011;67727;50.236;22.452;2023-05-29T14:34:51;6.70;;;3.50;;
78430;SDS011;67727;50.236;22.452;2023-05-29T14:37:18;8.40;;;4.00;;
78430;SDS011;67727;50.236;22.452;2023-05-29T14:39:46;9.20;;;4.00;;
78430;SDS011;67727;50.236;22.452;2023-05-29T14:42:13;8.40;;;3.90;;
78430;SDS011;67727;50.236;22.452;2023-05-29T14:44:39;7.60;;;4.00;;
78430;SDS011;67727;50.236;22.452;2023-05-29T14:47:06;11.20;;;4.40;;
78430;SDS011;67727;50.236;22.452;2023-05-29T14:52:00;6.60;;;3.70;;
78430;SDS011;67727;50.236;22.452;2023-05-29T14:54:29;12.10;;;4.50;;
78430;SDS011;67727;50.236;22.452;2023-05-29T14:56:56;10.10;;;4.30;;
78430;SDS011;67727;50.236;22.452;2023-05-29T14:59:24;7.90;;;4.10;;
78430;SDS011;67727;50.236;22.452;2023-05-29T15:01:51;12.20;;;4.80;;
78430;SDS011;67727;50.236;22.452;2023-05-29T15:04:20;6.10;;;4.50;;
78430;SDS011;67727;50.236;22.452;2023-05-29T15:06:47;9.00;;;4.50;;
78430;SDS011;67727;50.236;22.452;2023-05-29T15:09:14;7.90;;;4.40;;
78430;SDS011;67727;50.236;22.452;2023-05-29T15:14:08;7.90;;;4.00;;
78430;SDS011;67727;50.236;22.452;2023-05-29T15:16:36;6.20;;;3.80;;
78430;SDS011;67727;50.236;22.452;2023-05-29T15:19:02;5.50;;;3.80;;
78430;SDS011;67727;50.236;22.452;2023-05-29T15:21:29;8.90;;;4.80;;
78430;SDS011;67727;50.236;22.452;2023-05-29T15:26:23;8.30;;;4.20;;
78430;SDS011;67727;50.236;22.452;2023-05-29T15:28:49;8.50;;;4.20;;
78430;SDS011;67727;50.236;22.452;2023-05-29T15:31:16;8.50;;;4.50;;
78430;SDS011;67727;50.236;22.452;2023-05-29T15:33:44;9.30;;;4.30;;
78430;SDS011;67727;50.236;22.452;2023-05-29T15:36:10;9.00;;;4.10;;
78430;SDS011;67727;50.236;22.452;2023-05-29T15:38:37;7.80;;;4.00;;
78430;SDS011;67727;50.236;22.452;2023-05-29T15:41:04;11.00;;;4.30;;
78430;SDS011;67727;50.236;22.452;2023-05-29T15:43:31;7.80;;;4.40;;
78430;SDS011;67727;50.236;22.452;2023-05-29T15:45:59;7.10;;;4.50;;
78430;SDS011;67727;50.236;22.452;2023-05-29T15:48:26;7.40;;;4.40;;
78430;SDS011;67727;50.236;22.452;2023-05-29T15:50:53;6.60;;;4.60;;
78430;SDS011;67727;50.236;22.452;2023-05-29T15:53:19;8.40;;;4.60;;
78430;SDS011;67727;50.236;22.452;2023-05-29T15:55:46;7.20;;;4.00;;
78430;SDS011;67727;50.236;22.452;2023-05-29T15:58:13;15.10;;;5.60;;
78430;SDS011;67727;50.236;22.452;2023-05-29T16:00:40;9.50;;;4.40;;
78430;SDS011;67727;50.236;22.452;2023-05-29T16:03:06;8.10;;;4.60;;
78430;SDS011;67727;50.236;22.452;2023-05-29T16:05:34;10.90;;;4.80;;
78430;SDS011;67727;50.236;22.452;2023-05-29T16:08:02;8.70;;;4.70;;